< < Back
Terminal Aerodrome Forecast


Current Version              Previous Versions:   1  2  3  4  5  6  7  8  9  

Terminal Aerodrome Forecast

203
FTUS42 KTAE 241120
TAFABY
TAF
KABY 241120Z 2412/2512 25006KT P6SM FEW060=

Latest METAR

673
SAUS70 KWBC 251400 RRA
MTRABY
METAR KABY 251353Z 28006KT 10SM CLR 30/22 A3012 RMK AO2 SLP196
T03000222


USA.gov is the U.S. government's official web portal to all federal, state and local government web resources and services.